Time;durP1;ratioP1;P1;durP2;ratioP2;P2;SDS_P1;SDS_P2;PMS_P1;PMS_P2;Temp;Humidity;BMP_temperature;BMP_pressure;BME280_temperature;BME280_humidity;BME280_pressure;Samples;Min_cycle;Max_cycle;Signal;HPM_P1;HPM_P2
2021/06/16 00:02:16;;;;;;;8.43;5.25;;;24.20;98.70;;;;;;5050955;28;20040;-82
2021/06/16 00:04:41;;;;;;;7.63;4.97;;;24.10;98.70;;;;;;5043071;28;20017;-82
2021/06/16 00:07:07;;;;;;;8.98;5.00;;;24.10;98.50;;;;;;5050735;28;20029;-82
2021/06/16 00:09:34;;;;;;;6.78;4.78;;;24.10;98.30;;;;;;5042192;28;20021;-82
2021/06/16 00:11:59;;;;;;;9.55;5.07;;;24.00;98.20;;;;;;5051170;28;20032;-82
2021/06/16 00:14:25;;;;;;;8.85;4.82;;;24.00;98.00;;;;;;5041971;28;20032;-82
2021/06/16 00:16:51;;;;;;;7.15;4.38;;;24.00;97.90;;;;;;5049833;28;20521;-82
2021/06/16 00:19:17;;;;;;;8.48;4.57;;;24.00;97.90;;;;;;5042503;28;20026;-82
2021/06/16 00:21:43;;;;;;;6.00;4.50;;;24.00;97.90;;;;;;5046229;28;20040;-82
2021/06/16 00:24:09;;;;;;;7.50;4.35;;;23.90;97.70;;;;;;5043950;28;20382;-82
2021/06/16 00:26:35;;;;;;;6.97;4.10;;;24.00;97.40;;;;;;5044623;28;20036;-82
2021/06/16 00:29:01;;;;;;;6.78;3.83;;;24.00;97.10;;;;;;5044381;28;20033;-81
2021/06/16 00:31:27;;;;;;;7.57;3.92;;;24.00;96.90;;;;;;5044203;28;20103;-82
2021/06/16 00:33:53;;;;;;;5.85;4.00;;;24.00;96.60;;;;;;5044582;28;20033;-82
2021/06/16 00:36:19;;;;;;;6.68;3.92;;;24.00;96.40;;;;;;5042965;28;20056;-82
2021/06/16 00:38:44;;;;;;;9.90;4.22;;;24.00;96.00;;;;;;5042161;28;20536;-82
2021/06/16 00:41:11;;;;;;;8.98;3.60;;;23.90;96.00;;;;;;5040472;28;20075;-81
2021/06/16 00:43:36;;;;;;;6.28;3.75;;;24.00;95.60;;;;;;5041273;28;20033;-81
2021/06/16 00:46:02;;;;;;;4.05;3.17;;;24.00;95.50;;;;;;5050688;28;20021;-81
2021/06/16 00:48:28;;;;;;;5.45;3.25;;;23.90;95.20;;;;;;5040779;28;20057;-82
2021/06/16 00:50:53;;;;;;;3.50;3.15;;;24.00;95.10;;;;;;5050520;28;20048;-81
2021/06/16 00:53:19;;;;;;;8.10;3.22;;;24.00;94.70;;;;;;5041287;28;20056;-82
2021/06/16 00:55:45;;;;;;;4.93;2.92;;;24.00;94.60;;;;;;5050721;28;20039;-82
2021/06/16 00:58:12;;;;;;;8.38;3.30;;;24.00;94.50;;;;;;5049591;28;20041;-81
2021/06/16 01:01:07;;;;;;;8.60;3.85;;;24.00;94.50;;;;;;5043305;28;20032;-82
2021/06/16 01:03:35;;;;;;;4.00;2.75;;;23.90;94.40;;;;;;5045995;28;20036;-82
2021/06/16 01:06:22;;;;;;;7.03;2.88;;;23.90;94.20;;;;;;5045058;28;20294;-82
2021/06/16 01:09:12;;;;;;;4.20;3.05;;;23.90;94.00;;;;;;5045581;28;20018;-82
2021/06/16 01:11:54;;;;;;;6.70;2.88;;;23.90;93.90;;;;;;5048641;28;20041;-82
2021/06/16 01:14:27;;;;;;;6.15;3.08;;;23.90;94.40;;;;;;5039213;28;20037;-81
2021/06/16 01:16:57;;;;;;;3.28;2.97;;;23.80;94.30;;;;;;5035654;28;20201;-81
2021/06/16 01:19:41;;;;;;;4.30;2.97;;;23.70;94.50;;;;;;5041157;28;20104;-82
2021/06/16 01:22:31;;;;;;;6.55;3.00;;;23.70;94.50;;;;;;5036716;28;20089;-81
2021/06/16 01:25:07;;;;;;;4.03;2.90;;;23.60;94.70;;;;;;5035062;28;20091;-81
2021/06/16 01:27:34;;;;;;;4.82;2.83;;;23.60;94.80;;;;;;5049030;28;20102;-82
2021/06/16 01:30:01;;;;;;;5.45;3.10;;;23.60;94.80;;;;;;5037573;28;20607;-82
2021/06/16 01:32:27;;;;;;;4.22;2.97;;;23.50;94.80;;;;;;5045147;28;20029;-82
2021/06/16 01:34:53;;;;;;;5.07;3.00;;;23.50;94.80;;;;;;5036778;28;20441;-81
2021/06/16 01:37:19;;;;;;;4.53;2.63;;;23.50;94.70;;;;;;5044927;28;20021;-81
2021/06/16 01:39:46;;;;;;;5.13;2.58;;;23.40;94.80;;;;;;5037895;28;20025;-81
2021/06/16 01:42:21;;;;;;;3.30;2.75;;;23.40;94.80;;;;;;5043096;28;20072;-81
2021/06/16 01:44:50;;;;;;;5.50;3.10;;;23.40;94.80;;;;;;5049805;28;20052;-81
2021/06/16 01:47:19;;;;;;;5.00;2.92;;;23.40;94.80;;;;;;5048413;28;20136;-82
2021/06/16 01:49:47;;;;;;;4.95;3.00;;;23.40;94.70;;;;;;5047682;28;20048;-81
2021/06/16 01:52:17;;;;;;;5.90;2.88;;;23.40;94.70;;;;;;5049002;28;20029;-81
2021/06/16 01:54:43;;;;;;;4.75;3.00;;;23.30;94.90;;;;;;5049895;28;20397;-81
2021/06/16 01:57:10;;;;;;;3.67;2.90;;;23.30;94.70;;;;;;5046179;28;20052;-81
2021/06/16 01:59:40;;;;;;;4.68;2.92;;;23.40;94.50;;;;;;5041428;28;20053;-81
2021/06/16 02:02:06;;;;;;;5.00;3.05;;;23.40;94.50;;;;;;5049212;28;20037;-82
2021/06/16 02:04:34;;;;;;;4.97;2.80;;;23.40;94.20;;;;;;5040266;28;20028;-82
2021/06/16 02:07:12;;;;;;;3.33;2.80;;;23.40;94.20;;;;;;5049067;28;20397;-82
2021/06/16 02:09:39;;;;;;;3.55;2.80;;;23.40;94.20;;;;;;5050221;28;20045;-81
2021/06/16 02:12:10;;;;;;;4.00;2.67;;;23.30;94.30;;;;;;5048453;28;20032;-82
2021/06/16 02:14:36;;;;;;;3.50;2.70;;;23.30;94.50;;;;;;5038687;28;20480;-81
2021/06/16 02:17:12;;;;;;;7.00;2.72;;;23.30;94.70;;;;;;5046707;28;20112;-81
2021/06/16 02:19:40;;;;;;;2.67;2.47;;;23.20;94.80;;;;;;5032002;28;20037;-82
2021/06/16 02:22:07;;;;;;;3.80;3.05;;;23.10;94.90;;;;;;5046566;28;20020;-82
2021/06/16 02:24:34;;;;;;;3.78;2.78;;;23.10;94.90;;;;;;5039172;28;20036;-82
2021/06/16 02:27:00;;;;;;;5.82;2.75;;;23.10;95.00;;;;;;5044659;28;20268;-81
2021/06/16 02:29:28;;;;;;;4.40;2.58;;;23.00;95.10;;;;;;5040334;28;20032;-81
2021/06/16 02:31:54;;;;;;;4.00;2.50;;;23.00;94.90;;;;;;5047416;28;20078;-81
2021/06/16 02:34:20;;;;;;;4.63;2.40;;;23.00;95.00;;;;;;5050748;28;20096;-81
2021/06/16 02:36:49;;;;;;;3.63;2.60;;;23.10;94.90;;;;;;5052472;28;20566;-81
2021/06/16 02:39:28;;;;;;;3.30;2.45;;;23.00;94.70;;;;;;5044523;28;20024;-81
2021/06/16 02:41:55;;;;;;;4.35;2.70;;;23.10;94.80;;;;;;5052278;28;20032;-82
2021/06/16 02:44:22;;;;;;;3.33;2.53;;;23.10;94.70;;;;;;5044264;28;20021;-82
2021/06/16 02:46:54;;;;;;;4.68;2.40;;;23.00;94.70;;;;;;5052809;28;20040;-82
2021/06/16 02:49:29;;;;;;;3.53;2.58;;;23.00;94.60;;;;;;5052886;28;20040;-81
2021/06/16 02:51:56;;;;;;;4.53;2.20;;;23.00;94.70;;;;;;5052488;28;20446;-81
2021/06/16 02:54:23;;;;;;;3.22;2.45;;;22.90;94.70;;;;;;5051314;28;20017;-81
2021/06/16 02:56:49;;;;;;;4.10;2.47;;;22.90;94.90;;;;;;5048511;28;20310;-82
2021/06/16 02:59:17;;;;;;;3.53;2.50;;;23.00;94.50;;;;;;5045511;28;20120;-81
2021/06/16 03:01:45;;;;;;;4.50;2.38;;;23.00;94.40;;;;;;5052132;28;20525;-82
2021/06/16 03:04:12;;;;;;;3.40;2.28;;;23.00;94.30;;;;;;5045727;28;20010;-81
2021/06/16 03:06:40;;;;;;;2.97;2.15;;;23.00;94.20;;;;;;5051800;28;20033;-81
2021/06/16 03:09:06;;;;;;;3.42;2.50;;;22.90;94.20;;;;;;5045917;28;20511;-81
2021/06/16 03:11:33;;;;;;;5.25;2.60;;;23.00;94.20;;;;;;5049788;28;20025;-81
2021/06/16 03:14:01;;;;;;;3.00;2.40;;;23.00;94.10;;;;;;5046610;28;20049;-81
2021/06/16 03:16:27;;;;;;;3.08;2.38;;;23.00;94.20;;;;;;5048338;28;20033;-81
2021/06/16 03:18:53;;;;;;;3.97;2.47;;;23.00;94.10;;;;;;5047632;28;20026;-81
2021/06/16 03:21:19;;;;;;;4.57;2.30;;;23.00;94.20;;;;;;5046508;28;20385;-82
2021/06/16 03:23:47;;;;;;;4.85;2.97;;;23.00;94.00;;;;;;5047710;28;20021;-82
2021/06/16 03:26:15;;;;;;;3.80;2.42;;;23.00;93.90;;;;;;5044771;28;20033;-82
2021/06/16 03:28:42;;;;;;;3.55;2.70;;;23.10;94.10;;;;;;5046277;28;20034;-82
2021/06/16 03:31:09;;;;;;;4.60;2.50;;;23.10;93.80;;;;;;5043598;28;20461;-82
2021/06/16 03:33:35;;;;;;;2.67;2.33;;;23.10;93.70;;;;;;5047095;28;20216;-82
2021/06/16 03:36:01;;;;;;;3.92;2.38;;;23.10;93.70;;;;;;5041765;28;20017;-82
2021/06/16 03:38:28;;;;;;;2.80;2.30;;;23.10;93.60;;;;;;5045841;28;20028;-81
2021/06/16 03:40:54;;;;;;;4.88;2.70;;;23.00;93.90;;;;;;5039638;28;20021;-82
2021/06/16 03:43:21;;;;;;;3.95;2.60;;;22.90;94.00;;;;;;5046854;28;20067;-81
2021/06/16 03:45:48;;;;;;;4.88;2.55;;;22.90;94.30;;;;;;5052059;28;20025;-81
2021/06/16 03:48:17;;;;;;;4.03;2.40;;;22.90;94.40;;;;;;5042859;28;20034;-81
2021/06/16 03:50:44;;;;;;;4.30;2.47;;;22.80;94.30;;;;;;5051827;28;20075;-81
2021/06/16 03:53:11;;;;;;;3.45;2.53;;;22.80;94.60;;;;;;5043607;28;20049;-82
2021/06/16 03:55:41;;;;;;;5.38;2.75;;;22.80;94.60;;;;;;5049521;28;20267;-81
2021/06/16 03:58:10;;;;;;;3.85;2.25;;;22.80;94.30;;;;;;5047286;28;20409;-82
2021/06/16 04:00:37;;;;;;;3.35;2.60;;;22.80;94.60;;;;;;5045146;28;20280;-82
2021/06/16 04:03:06;;;;;;;3.78;2.40;;;22.80;94.30;;;;;;5051073;28;20103;-82
2021/06/16 04:05:31;;;;;;;4.47;2.83;;;22.80;94.10;;;;;;5043748;28;20458;-81
2021/06/16 04:07:58;;;;;;;5.15;2.50;;;22.80;94.30;;;;;;5049164;28;20044;-81
2021/06/16 04:10:25;;;;;;;4.78;2.50;;;22.70;94.60;;;;;;5042943;28;20489;-81
2021/06/16 04:12:51;;;;;;;5.10;2.63;;;22.70;94.50;;;;;;5050572;28;20033;-81
2021/06/16 04:15:20;;;;;;;3.75;2.70;;;22.70;94.60;;;;;;5040747;28;20025;-82
2021/06/16 04:17:46;;;;;;;4.10;2.83;;;22.80;94.60;;;;;;5050875;28;20459;-81
2021/06/16 04:20:14;;;;;;;3.88;2.53;;;22.80;94.60;;;;;;5040925;28;20020;-82
2021/06/16 04:22:40;;;;;;;4.57;2.67;;;22.80;94.40;;;;;;5049993;28;20551;-81
2021/06/16 04:25:08;;;;;;;4.72;2.85;;;22.80;94.50;;;;;;5051053;28;20025;-82
2021/06/16 04:27:34;;;;;;;3.60;2.42;;;22.80;94.60;;;;;;5048577;28;20489;-82
2021/06/16 04:30:00;;;;;;;3.33;2.60;;;22.80;94.80;;;;;;5039411;28;20464;-81
2021/06/16 04:32:26;;;;;;;3.80;2.97;;;22.80;94.50;;;;;;5046417;28;20033;-81
2021/06/16 04:34:52;;;;;;;2.88;2.60;;;22.90;94.30;;;;;;5038351;28;20091;-82
2021/06/16 04:37:18;;;;;;;4.32;3.25;;;22.90;94.40;;;;;;5045868;28;20025;-81
2021/06/16 04:39:44;;;;;;;4.57;3.28;;;22.90;94.50;;;;;;5039405;28;20095;-81
2021/06/16 04:42:10;;;;;;;3.90;2.95;;;22.90;94.50;;;;;;5044734;28;20056;-81
2021/06/16 04:44:35;;;;;;;5.50;2.97;;;22.90;94.80;;;;;;5049975;28;20017;-81
2021/06/16 04:47:01;;;;;;;6.07;2.72;;;22.90;94.70;;;;;;5049788;28;20405;-81
2021/06/16 04:49:28;;;;;;;5.60;3.03;;;22.90;94.50;;;;;;5040585;28;20025;-83
2021/06/16 04:51:54;;;;;;;5.97;2.90;;;22.80;94.70;;;;;;5049085;28;20031;-83
2021/06/16 04:54:20;;;;;;;7.97;3.38;;;22.80;95.20;;;;;;5042246;28;20021;-83
2021/06/16 04:56:46;;;;;;;8.25;3.20;;;22.80;95.30;;;;;;5048532;28;20124;-84
2021/06/16 04:59:11;;;;;;;4.97;3.28;;;22.70;95.30;;;;;;5043555;28;20056;-83
2021/06/16 05:01:37;;;;;;;6.10;3.30;;;22.80;95.20;;;;;;5049805;28;20484;-85
2021/06/16 05:04:03;;;;;;;7.07;2.92;;;22.80;95.30;;;;;;5044804;28;20033;-85
2021/06/16 05:06:29;;;;;;;7.65;3.08;;;22.80;95.40;;;;;;5048231;28;20516;-85
2021/06/16 05:08:55;;;;;;;4.22;3.15;;;22.80;95.10;;;;;;5048870;28;20513;-85
2021/06/16 05:11:21;;;;;;;4.03;3.13;;;22.80;95.20;;;;;;5049470;28;20020;-85
2021/06/16 05:13:46;;;;;;;5.47;3.30;;;22.90;95.60;;;;;;5046430;28;20061;-85
2021/06/16 05:16:12;;;;;;;4.40;3.28;;;23.00;95.40;;;;;;5042876;28;20440;-85
2021/06/16 05:18:41;;;;;;;3.63;2.83;;;23.00;95.00;;;;;;5042581;28;20505;-85
2021/06/16 05:21:07;;;;;;;4.28;3.13;;;23.10;95.00;;;;;;5050217;28;20021;-85
2021/06/16 05:23:33;;;;;;;4.30;3.40;;;23.10;95.00;;;;;;5046270;28;20029;-85
2021/06/16 05:25:59;;;;;;;8.20;3.50;;;23.10;95.20;;;;;;5040269;28;20018;-85
2021/06/16 05:28:25;;;;;;;4.88;3.10;;;23.00;95.20;;;;;;5042586;28;20041;-86
2021/06/16 05:30:50;;;;;;;4.45;3.20;;;23.10;95.10;;;;;;5040044;28;20025;-85
2021/06/16 05:33:16;;;;;;;7.05;3.88;;;23.10;94.90;;;;;;5041946;28;20029;-85
2021/06/16 05:35:42;;;;;;;3.80;3.00;;;23.20;95.00;;;;;;5046312;28;20021;-85
2021/06/16 05:38:10;;;;;;;8.38;3.80;;;23.30;94.70;;;;;;5049607;28;20443;-86
2021/06/16 05:40:36;;;;;;;8.48;3.25;;;23.40;94.80;;;;;;5041055;28;20528;-85
2021/06/16 05:43:02;;;;;;;6.50;3.08;;;23.50;94.70;;;;;;5038264;28;20022;-85
2021/06/16 05:45:28;;;;;;;6.40;3.60;;;23.60;94.60;;;;;;5045876;28;20032;-85
2021/06/16 05:47:54;;;;;;;5.75;3.20;;;23.60;94.40;;;;;;5043276;28;20433;-86
2021/06/16 05:50:20;;;;;;;5.78;3.20;;;23.70;94.20;;;;;;5044412;28;20036;-85
2021/06/16 05:52:46;;;;;;;9.07;3.55;;;23.70;94.20;;;;;;5048367;28;20029;-85
2021/06/16 05:55:13;;;;;;;4.28;3.00;;;23.80;94.20;;;;;;5048580;28;20029;-92
2021/06/16 05:57:39;;;;;;;7.35;3.35;;;23.90;93.90;;;;;;5045231;28;20131;-89
2021/06/16 06:00:08;;;;;;;4.10;3.10;;;23.90;93.90;;;;;;5042564;28;20036;-85
2021/06/16 06:02:35;;;;;;;8.90;3.20;;;23.90;93.70;;;;;;5050021;28;20053;-86
2021/06/16 06:05:00;;;;;;;5.00;3.40;;;24.00;93.90;;;;;;5048339;28;20028;-86
2021/06/16 06:07:26;;;;;;;10.38;3.00;;;23.90;93.80;;;;;;5053434;28;20037;-90
2021/06/16 06:09:52;;;;;;;6.63;3.20;;;23.90;93.40;;;;;;5043329;28;20425;-85
2021/06/16 06:12:17;;;;;;;5.07;3.40;;;24.00;93.10;;;;;;5040650;28;20090;-86
2021/06/16 06:14:43;;;;;;;5.03;3.30;;;24.10;93.70;;;;;;5047856;28;20022;-86
2021/06/16 06:17:09;;;;;;;6.07;3.20;;;24.10;93.00;;;;;;5040100;28;20561;-86
2021/06/16 06:19:35;;;;;;;4.45;3.05;;;24.00;93.10;;;;;;5053925;28;20040;-86
2021/06/16 06:22:01;;;;;;;5.20;3.35;;;24.00;93.40;;;;;;5049562;28;20430;-84
2021/06/16 06:24:26;;;;;;;7.60;3.10;;;24.20;93.90;;;;;;5046846;28;20100;-81
2021/06/16 06:26:52;;;;;;;5.80;3.20;;;24.30;93.70;;;;;;5047479;28;20041;-81
2021/06/16 06:29:18;;;;;;;6.30;3.50;;;24.40;93.30;;;;;;5048581;28;20028;-82
2021/06/16 06:31:43;;;;;;;4.57;2.90;;;24.60;92.40;;;;;;5047870;28;20036;-82
2021/06/16 06:34:09;;;;;;;4.70;3.08;;;24.70;92.50;;;;;;5046629;28;20469;-82
2021/06/16 06:36:35;;;;;;;5.72;2.70;;;24.80;92.00;;;;;;5046506;28;20021;-81
2021/06/16 06:39:01;;;;;;;4.72;2.90;;;25.10;91.50;;;;;;5047730;28;20025;-82
2021/06/16 06:41:27;;;;;;;6.60;2.67;;;25.30;91.50;;;;;;5045941;28;20032;-86
2021/06/16 06:43:53;;;;;;;5.10;3.00;;;25.50;90.60;;;;;;5045659;28;20388;-82
2021/06/16 06:46:18;;;;;;;5.20;2.60;;;25.80;90.30;;;;;;5047344;28;20025;-82
2021/06/16 06:48:44;;;;;;;3.47;2.65;;;26.00;90.00;;;;;;5049303;28;20116;-81
2021/06/16 06:51:10;;;;;;;5.25;2.50;;;26.30;88.80;;;;;;5047487;28;20029;-81
2021/06/16 06:53:36;;;;;;;4.20;2.53;;;26.60;87.70;;;;;;5049252;28;20052;-82
2021/06/16 06:56:03;;;;;;;5.65;2.70;;;26.80;85.80;;;;;;5045260;28;20040;-82
2021/06/16 06:58:31;;;;;;;4.32;2.65;;;26.80;84.40;;;;;;5049864;28;20020;-82
2021/06/16 07:00:57;;;;;;;5.35;2.78;;;26.90;83.70;;;;;;5041978;28;20018;-82
2021/06/16 07:03:23;;;;;;;5.75;2.53;;;27.10;82.60;;;;;;5049654;28;20036;-84
2021/06/16 07:05:48;;;;;;;4.15;2.30;;;27.10;80.30;;;;;;5049895;28;20025;-84
2021/06/16 07:08:14;;;;;;;5.10;2.10;;;27.00;79.00;;;;;;5048660;28;20048;-83
2021/06/16 07:10:40;;;;;;;5.07;2.40;;;26.80;79.60;;;;;;5050686;28;20025;-85
2021/06/16 07:13:05;;;;;;;4.15;2.38;;;26.50;79.80;;;;;;5048017;28;20033;-84
2021/06/16 07:15:31;;;;;;;5.97;2.30;;;26.20;80.00;;;;;;5049994;28;20520;-85
2021/06/16 07:17:58;;;;;;;3.47;2.10;;;26.10;80.50;;;;;;5048092;28;20037;-84
2021/06/16 07:20:24;;;;;;;6.72;2.72;;;25.90;82.00;;;;;;5050680;28;20510;-84
2021/06/16 07:22:50;;;;;;;5.10;2.63;;;25.70;85.30;;;;;;5049719;28;20021;-85
2021/06/16 07:25:17;;;;;;;9.95;2.88;;;25.50;88.70;;;;;;5050235;28;20376;-83
2021/06/16 07:27:43;;;;;;;7.70;2.55;;;25.40;91.90;;;;;;5044995;28;20032;-83
2021/06/16 07:30:10;;;;;;;6.05;2.97;;;25.20;92.80;;;;;;5047903;28;20548;-83
2021/06/16 07:32:36;;;;;;;8.77;3.03;;;25.00;95.00;;;;;;5051483;28;20394;-83
2021/06/16 07:35:02;;;;;;;8.18;2.83;;;24.80;94.00;;;;;;5048310;28;20017;-82
2021/06/16 07:37:27;;;;;;;9.55;3.92;;;24.50;96.40;;;;;;5051442;28;20052;-86
2021/06/16 07:39:54;;;;;;;6.60;3.40;;;24.40;99.70;;;;;;5049412;28;20041;-83
2021/06/16 07:42:21;;;;;;;6.68;3.30;;;24.20;99.90;;;;;;5049302;28;20024;-83
2021/06/16 07:44:46;;;;;;;13.57;3.33;;;24.20;99.90;;;;;;5050265;28;20033;-83
2021/06/16 07:47:12;;;;;;;8.55;3.88;;;24.10;99.90;;;;;;5049508;28;20150;-83
2021/06/16 07:49:38;;;;;;;6.10;3.38;;;24.10;99.90;;;;;;5050990;28;20044;-82
2021/06/16 07:52:04;;;;;;;9.68;3.42;;;23.90;99.90;;;;;;5046640;28;20025;-83
2021/06/16 07:54:30;;;;;;;7.90;3.40;;;23.70;99.90;;;;;;5050325;28;20463;-83
2021/06/16 07:56:56;;;;;;;7.13;3.58;;;23.70;99.90;;;;;;5045035;28;20132;-83
2021/06/16 07:59:21;;;;;;;9.20;3.63;;;23.70;99.90;;;;;;5044827;28;20155;-83
2021/06/16 08:01:48;;;;;;;9.15;4.32;;;23.70;99.90;;;;;;5050702;28;20053;-83
2021/06/16 08:04:14;;;;;;;5.47;3.53;;;23.70;99.90;;;;;;5044365;28;20021;-83
2021/06/16 08:06:40;;;;;;;7.68;3.92;;;23.70;99.90;;;;;;5050591;28;20059;-84
2021/06/16 08:09:06;;;;;;;9.65;4.50;;;23.60;99.90;;;;;;5045140;28;20482;-83
2021/06/16 08:11:32;;;;;;;11.20;4.05;;;23.60;99.90;;;;;;5048657;28;20017;-84
2021/06/16 08:13:58;;;;;;;5.45;4.20;;;23.70;99.90;;;;;;5046250;28;20093;-83
2021/06/16 08:16:24;;;;;;;13.38;4.38;;;23.60;99.90;;;;;;5046727;28;20088;-84
2021/06/16 08:18:51;;;;;;;9.38;4.68;;;23.60;99.90;;;;;;5047175;28;20029;-83
2021/06/16 08:21:18;;;;;;;10.60;4.55;;;23.70;99.90;;;;;;5044567;28;20031;-84
2021/06/16 08:23:44;;;;;;;10.93;4.63;;;23.70;99.90;;;;;;5047813;28;20413;-82
2021/06/16 08:26:10;;;;;;;10.30;3.90;;;23.70;99.90;;;;;;5042259;28;20447;-84
2021/06/16 08:28:37;;;;;;;9.00;3.70;;;23.70;99.90;;;;;;5046733;28;20172;-84
2021/06/16 08:31:03;;;;;;;8.70;3.95;;;23.60;99.90;;;;;;5041050;28;20027;-83
2021/06/16 08:33:28;;;;;;;9.50;3.72;;;23.70;99.90;;;;;;5046995;28;20048;-83
2021/06/16 08:35:54;;;;;;;7.35;3.90;;;23.90;99.90;;;;;;5039534;28;20533;-83
2021/06/16 08:38:20;;;;;;;9.93;4.18;;;24.00;99.90;;;;;;5047774;28;20035;-84
2021/06/16 08:40:45;;;;;;;13.90;4.57;;;24.00;99.90;;;;;;5037522;28;20086;-83
2021/06/16 08:43:13;;;;;;;9.82;4.35;;;23.80;99.90;;;;;;5045039;28;20029;-83
2021/06/16 08:45:40;;;;;;;10.55;3.85;;;23.90;99.90;;;;;;5036566;28;20562;-83
2021/06/16 08:48:07;;;;;;;7.20;4.57;;;24.00;99.90;;;;;;5045169;28;20041;-82
2021/06/16 08:50:34;;;;;;;7.82;3.60;;;24.10;99.90;;;;;;5048705;28;20021;-82
2021/06/16 08:52:59;;;;;;;7.70;3.50;;;24.20;99.90;;;;;;5047850;28;20389;-82
2021/06/16 08:55:25;;;;;;;7.88;3.63;;;24.40;99.90;;;;;;5031950;28;20022;-83
2021/06/16 08:57:51;;;;;;;4.65;3.58;;;24.40;99.90;;;;;;5040048;28;20567;-82
2021/06/16 09:00:19;;;;;;;11.85;3.88;;;24.50;99.90;;;;;;5046126;28;20025;-83
2021/06/16 09:02:45;;;;;;;7.65;4.10;;;24.70;99.90;;;;;;5043393;28;20383;-82
2021/06/16 09:05:12;;;;;;;10.57;4.10;;;24.90;99.90;;;;;;5044934;28;20122;-83
2021/06/16 09:07:40;;;;;;;7.13;3.72;;;25.00;99.90;;;;;;5044518;28;20045;-82
2021/06/16 09:10:13;;;;;;;6.15;3.55;;;25.00;99.90;;;;;;5032991;28;20025;-82
2021/06/16 09:12:56;;;;;;;9.70;3.65;;;25.00;99.90;;;;;;5042491;28;20083;-81
2021/06/16 09:15:29;;;;;;;10.75;4.07;;;24.80;99.90;;;;;;5042551;28;20020;-82
2021/06/16 09:18:06;;;;;;;7.55;3.90;;;24.80;99.90;;;;;;5042024;28;20039;-83
2021/06/16 09:20:42;;;;;;;11.73;4.82;;;24.50;99.90;;;;;;5046226;28;20028;-82
2021/06/16 09:23:28;;;;;;;11.73;4.47;;;24.40;99.90;;;;;;5040080;28;20501;-83
2021/06/16 09:26:17;;;;;;;10.43;4.30;;;24.20;99.90;;;;;;5040096;28;20025;-82
2021/06/16 09:28:50;;;;;;;10.52;4.85;;;24.20;99.90;;;;;;5045991;28;20224;-83
2021/06/16 09:31:17;;;;;;;12.23;4.80;;;24.30;99.90;;;;;;5045679;28;20025;-83
2021/06/16 09:33:44;;;;;;;7.45;4.60;;;24.40;99.90;;;;;;5045134;28;20037;-83
2021/06/16 09:36:13;;;;;;;7.32;4.10;;;24.40;99.90;;;;;;5045673;28;20021;-83
2021/06/16 09:38:40;;;;;;;8.02;4.18;;;24.40;99.90;;;;;;5038448;28;20528;-82
2021/06/16 09:41:10;;;;;;;9.95;4.28;;;24.40;99.90;;;;;;5043036;28;20055;-84
2021/06/16 09:43:37;;;;;;;9.93;4.15;;;24.30;99.90;;;;;;5043737;28;20386;-83
2021/06/16 09:46:05;;;;;;;6.05;4.25;;;24.30;99.90;;;;;;5037819;28;20058;-83
2021/06/16 09:48:42;;;;;;;8.95;4.70;;;24.40;99.90;;;;;;5047213;28;20065;-82
2021/06/16 09:51:17;;;;;;;12.32;5.13;;;24.60;99.90;;;;;;5030593;28;20033;-83
2021/06/16 09:54:11;;;;;;;11.70;4.18;;;24.60;99.90;;;;;;5044450;28;20021;-84
2021/06/16 09:56:41;;;;;;;7.43;4.25;;;24.60;99.90;;;;;;5048364;28;20090;-83
2021/06/16 09:59:08;;;;;;;9.10;4.43;;;24.70;99.90;;;;;;5048747;28;20429;-83
2021/06/16 10:01:46;;;;;;;8.48;4.25;;;24.80;99.90;;;;;;5050340;28;20094;-84
2021/06/16 10:04:42;;;;;;;7.15;4.78;;;24.80;99.90;;;;;;5051212;28;20029;-84
2021/06/16 10:07:12;;;;;;;8.48;4.63;;;24.90;99.90;;;;;;5052671;28;20084;-83
2021/06/16 10:09:39;;;;;;;9.98;4.93;;;25.00;99.90;;;;;;5067208;28;20036;-84
2021/06/16 10:12:06;;;;;;;8.07;4.60;;;25.00;99.90;;;;;;5070463;28;20043;-83
2021/06/16 10:14:32;;;;;;;11.27;5.00;;;25.00;99.90;;;;;;5060100;28;20075;-85
2021/06/16 10:16:58;;;;;;;6.95;4.20;;;25.20;99.90;;;;;;5048428;28;20021;-84
2021/06/16 10:19:25;;;;;;;8.88;4.18;;;25.50;99.90;;;;;;5040677;28;20022;-84
2021/06/16 10:21:51;;;;;;;9.07;4.40;;;25.80;99.90;;;;;;5041033;28;20108;-84
2021/06/16 10:24:17;;;;;;;10.00;4.10;;;26.10;99.90;;;;;;5040654;28;20105;-84
2021/06/16 10:26:43;;;;;;;8.05;3.92;;;26.50;99.90;;;;;;5048806;28;20036;-84
2021/06/16 10:29:15;;;;;;;9.32;3.92;;;27.00;99.90;;;;;;5049080;28;20388;-84
2021/06/16 10:31:42;;;;;;;6.75;3.90;;;27.50;99.90;;;;;;5048844;28;20053;-84
2021/06/16 10:34:08;;;;;;;9.90;4.13;;;28.00;99.90;;;;;;5040157;28;20025;-84
2021/06/16 10:36:36;;;;;;;6.55;3.75;;;28.50;99.40;;;;;;5042160;28;20025;-83
2021/06/16 10:39:02;;;;;;;6.78;3.55;;;28.80;97.50;;;;;;5043980;28;20028;-85
2021/06/16 10:41:46;;;;;;;5.10;3.30;;;29.30;97.50;;;;;;5044129;28;20021;-85
2021/06/16 10:44:20;;;;;;;;;;;29.40;97.90;;;;;;5045649;28;20112;-85
2021/06/16 10:46:55;;;;;;;8.23;3.50;;;29.50;96.90;;;;;;5032883;28;20301;-84
2021/06/16 10:49:42;;;;;;;5.88;3.22;;;29.60;97.90;;;;;;5044250;28;20033;-84
2021/06/16 10:52:12;;;;;;;7.43;3.85;;;29.80;97.10;;;;;;5047704;28;20017;-84
2021/06/16 10:54:52;;;;;;;11.60;3.30;;;30.10;97.60;;;;;;5039062;28;20441;-84
2021/06/16 10:57:17;;;;;;;9.98;3.33;;;30.10;94.00;;;;;;5038516;28;20532;-86
2021/06/16 10:59:43;;;;;;;8.73;3.95;;;29.50;94.40;;;;;;5042297;28;20141;-85
2021/06/16 11:02:17;;;;;;;4.93;3.33;;;29.20;95.80;;;;;;5042168;28;20021;-84
2021/06/16 11:04:43;;;;;;;6.18;3.40;;;29.30;95.00;;;;;;5049092;28;20025;-84
2021/06/16 11:07:31;;;;;;;6.30;3.67;;;29.20;96.50;;;;;;5051637;28;20022;-85
2021/06/16 11:09:58;;;;;;;5.95;3.47;;;29.30;96.40;;;;;;5051845;28;20094;-85
2021/06/16 11:12:40;;;;;;;7.47;3.60;;;29.40;96.80;;;;;;5051470;28;20020;-87
2021/06/16 11:15:29;;;;;;;12.65;5.32;;;29.30;94.60;;;;;;5044156;28;20152;-85
2021/06/16 11:17:58;;;;;;;7.20;3.45;;;29.20;93.60;;;;;;5051796;28;20187;-85
2021/06/16 11:20:43;;;;;;;4.40;2.92;;;29.00;95.80;;;;;;5043593;28;20264;-85
2021/06/16 11:23:21;;;;;;;4.57;3.03;;;29.00;95.60;;;;;;5043853;28;20041;-83
2021/06/16 11:25:49;;;;;;;5.80;2.80;;;29.10;96.00;;;;;;5044712;28;20017;-84
2021/06/16 11:28:15;;;;;;;7.03;3.03;;;29.30;94.60;;;;;;5047998;28;20029;-85
2021/06/16 11:30:56;;;;;;;5.50;3.08;;;29.60;94.80;;;;;;5034155;28;20022;-85
2021/06/16 11:33:22;;;;;;;6.28;3.03;;;29.80;93.40;;;;;;5048727;28;20021;-85
2021/06/16 11:35:51;;;;;;;6.18;3.50;;;30.10;93.70;;;;;;5045219;28;20097;-84
2021/06/16 11:38:17;;;;;;;3.42;3.00;;;30.10;94.20;;;;;;5045770;28;20063;-85
2021/06/16 11:41:15;;;;;;;6.97;3.85;;;30.20;94.30;;;;;;5035211;28;20378;-85
2021/06/16 11:44:20;;;;;;;9.95;3.78;;;30.30;93.30;;;;;;5044393;28;20021;-84
2021/06/16 11:46:48;;;;;;;8.77;3.67;;;30.00;94.10;;;;;;5034045;28;20033;-84
2021/06/16 11:49:17;;;;;;;5.50;3.13;;;29.90;93.30;;;;;;5046101;28;20037;-85
2021/06/16 11:51:43;;;;;;;4.18;3.08;;;29.60;93.40;;;;;;5041724;28;20017;-85
2021/06/16 11:57:09;;;;;;;4.68;2.50;;;29.90;90.00;;;;;;5037280;28;20045;-85
2021/06/16 11:59:49;;;;;;;5.72;2.80;;;30.10;89.50;;;;;;5049952;28;20550;-84
2021/06/16 12:02:23;;;;;;;4.00;2.67;;;30.00;86.80;;;;;;5048420;28;20025;-84
2021/06/16 12:04:53;;;;;;;3.25;2.30;;;29.90;85.80;;;;;;5032952;28;20026;-86
2021/06/16 12:07:39;;;;;;;4.50;2.63;;;30.20;85.50;;;;;;5046189;28;20513;-86
2021/06/16 12:10:07;;;;;;;4.13;2.70;;;30.20;85.20;;;;;;5032148;28;20021;-85
2021/06/16 12:13:06;;;;;;;3.33;2.60;;;30.30;84.40;;;;;;5039280;28;20033;-85
2021/06/16 12:15:37;;;;;;;4.55;2.63;;;30.20;84.00;;;;;;5034228;28;20386;-87
2021/06/16 12:18:04;;;;;;;6.15;2.78;;;30.30;84.50;;;;;;5040132;28;20028;-85
2021/06/16 12:20:31;;;;;;;6.88;2.90;;;30.50;82.80;;;;;;5037089;28;20017;-87
2021/06/16 12:22:58;;;;;;;5.10;2.30;;;30.80;81.00;;;;;;5045669;28;20120;-85
2021/06/16 12:25:34;;;;;;;6.30;2.53;;;31.00;78.30;;;;;;5045552;28;20023;-85
2021/06/16 12:28:01;;;;;;;4.65;2.70;;;30.90;76.30;;;;;;5050079;28;20041;-84
2021/06/16 12:30:30;;;;;;;5.18;2.30;;;31.00;77.10;;;;;;5040502;28;20055;-86
2021/06/16 12:35:54;;;;;;;4.45;2.40;;;31.40;74.00;;;;;;5049733;28;20032;-86
2021/06/16 12:38:43;;;;;;;4.32;2.33;;;31.40;73.00;;;;;;5049094;28;20473;-84
2021/06/16 12:41:24;;;;;;;6.18;2.60;;;31.50;72.00;;;;;;5040533;28;20029;-85
2021/06/16 12:43:50;;;;;;;5.43;2.50;;;31.90;68.60;;;;;;5065035;28;20049;-86
2021/06/16 12:46:16;;;;;;;5.22;2.55;;;32.10;68.60;;;;;;5050877;28;20097;-86
2021/06/16 12:48:42;;;;;;;3.63;2.20;;;32.20;68.90;;;;;;5040025;28;20033;-85
2021/06/16 12:51:08;;;;;;;4.35;2.00;;;32.20;67.00;;;;;;5031003;28;20233;-85
2021/06/16 12:53:38;;;;;;;5.60;2.33;;;32.50;65.80;;;;;;5039746;28;20760;-85
2021/06/16 12:56:05;;;;;;;9.02;2.60;;;32.50;64.40;;;;;;5050692;28;20020;-85
2021/06/16 12:58:32;;;;;;;4.65;2.30;;;32.80;63.70;;;;;;5041113;28;20022;-86
2021/06/16 13:00:59;;;;;;;7.63;2.63;;;33.10;64.90;;;;;;5050279;28;20484;-85